Time;durP1;ratioP1;P1;durP2;ratioP2;P2;SDS_P1;SDS_P2;PMS_P1;PMS_P2;Temp;Humidity;BMP_temperature;BMP_pressure;BME280_temperature;BME280_humidity;BME280_pressure;Samples;Min_cycle;Max_cycle;Signal;HPM_P1;HPM_P2
2022/10/29 00:02:03;;;;;;;1999.90;999.90;;;12.80;99.90;;;;;;5086589;28;21082;-66
2022/10/29 00:04:30;;;;;;;1999.90;999.90;;;12.80;99.90;;;;;;5075947;28;20447;-67
2022/10/29 00:06:58;;;;;;;1999.90;999.90;;;12.80;99.90;;;;;;5085945;28;20454;-68
2022/10/29 00:09:24;;;;;;;1999.90;999.90;;;12.70;99.90;;;;;;5089921;28;20473;-67
2022/10/29 00:11:51;;;;;;;1999.90;999.90;;;12.70;99.90;;;;;;5089010;28;20442;-67
2022/10/29 00:14:18;;;;;;;1999.90;999.90;;;12.70;99.90;;;;;;5089758;28;20959;-67
2022/10/29 00:16:45;;;;;;;1999.90;999.90;;;12.70;99.90;;;;;;5089826;28;20983;-67
2022/10/29 00:19:11;;;;;;;1999.90;999.90;;;12.70;99.90;;;;;;5090057;28;20466;-67
2022/10/29 00:21:39;;;;;;;1999.90;999.90;;;12.60;99.90;;;;;;5089533;28;20477;-67
2022/10/29 00:24:09;;;;;;;1999.90;999.90;;;12.60;99.90;;;;;;5089876;28;20539;-67
2022/10/29 00:26:36;;;;;;;1999.90;999.90;;;12.60;99.90;;;;;;5089398;28;20438;-67
2022/10/29 00:29:03;;;;;;;1999.90;999.90;;;12.60;99.90;;;;;;5089594;28;20462;-67
2022/10/29 00:31:30;;;;;;;1999.90;999.90;;;12.60;99.90;;;;;;5089094;28;20442;-67
2022/10/29 00:33:56;;;;;;;1999.90;999.90;;;12.60;99.90;;;;;;5089330;28;20462;-67
2022/10/29 00:36:27;;;;;;;1999.90;999.90;;;12.60;99.90;;;;;;5089462;28;20535;-67
2022/10/29 00:38:55;;;;;;;1999.90;999.90;;;12.50;99.90;;;;;;5089663;28;20488;-67
2022/10/29 00:41:26;;;;;;;1999.90;999.90;;;12.50;99.90;;;;;;5089299;28;20529;-68
2022/10/29 00:44:25;;;;;;;1999.90;999.90;;;12.50;99.90;;;;;;5089212;28;20449;-67
2022/10/29 00:46:55;;;;;;;1999.90;999.90;;;12.50;99.90;;;;;;5089604;28;20446;-67
2022/10/29 00:49:23;;;;;;;1999.90;999.90;;;12.60;99.90;;;;;;5089644;28;20465;-67
2022/10/29 00:51:51;;;;;;;1999.90;999.90;;;12.60;99.90;;;;;;5088801;28;20470;-67
2022/10/29 00:54:18;;;;;;;1999.90;999.90;;;12.60;99.90;;;;;;5089257;28;20445;-67
2022/10/29 00:56:51;;;;;;;1999.90;999.90;;;12.60;99.90;;;;;;5089694;28;20446;-67
2022/10/29 00:59:18;;;;;;;1999.90;999.90;;;12.60;99.90;;;;;;5089433;28;20454;-67
2022/10/29 01:01:48;;;;;;;1999.90;999.90;;;12.50;99.90;;;;;;5088412;28;20477;-67
2022/10/29 01:04:16;;;;;;;1999.90;999.90;;;12.50;99.90;;;;;;5089069;28;20454;-67
2022/10/29 01:06:43;;;;;;;1999.90;999.90;;;12.50;99.90;;;;;;5089502;28;20449;-67
2022/10/29 01:09:10;;;;;;;1999.90;999.90;;;12.40;99.90;;;;;;5089508;28;20462;-67
2022/10/29 01:11:46;;;;;;;1999.90;999.90;;;12.40;99.90;;;;;;5089078;28;20438;-67
2022/10/29 01:14:27;;;;;;;1999.90;999.90;;;12.50;99.90;;;;;;5089310;28;20437;-67
2022/10/29 01:17:00;;;;;;;1999.90;999.90;;;12.50;99.90;;;;;;5089625;28;20822;-67
2022/10/29 01:19:54;;;;;;;1999.90;999.90;;;12.50;99.90;;;;;;5089244;28;20470;-67
2022/10/29 01:22:27;;;;;;;1999.90;999.90;;;12.40;99.90;;;;;;5088785;28;20470;-67
2022/10/29 01:25:19;;;;;;;1999.90;999.90;;;12.40;99.90;;;;;;5089018;28;20442;-67
2022/10/29 01:28:05;;;;;;;1999.90;999.90;;;12.40;99.90;;;;;;5089579;28;20462;-67
2022/10/29 01:31:05;;;;;;;1999.90;999.90;;;12.50;99.90;;;;;;5089296;28;20438;-68
2022/10/29 01:33:40;;;;;;;1999.90;999.90;;;12.50;99.90;;;;;;5083390;28;20826;-67
2022/10/29 01:36:16;;;;;;;1999.90;999.90;;;12.50;99.90;;;;;;5089398;28;20426;-67
2022/10/29 01:38:52;;;;;;;1999.90;999.90;;;12.60;99.90;;;;;;5091319;28;20472;-67
2022/10/29 01:41:23;;;;;;;1999.90;999.90;;;12.60;99.90;;;;;;5092856;28;20510;-67
2022/10/29 01:43:55;;;;;;;1999.90;999.90;;;12.70;99.90;;;;;;5092773;28;20482;-67
2022/10/29 01:46:28;;;;;;;1999.90;999.90;;;12.70;99.90;;;;;;5092682;28;20795;-67
2022/10/29 01:49:02;;;;;;;1999.90;999.90;;;12.70;99.90;;;;;;5093233;28;20466;-67
2022/10/29 01:51:31;;;;;;;1999.90;999.90;;;12.60;99.90;;;;;;5092825;28;20438;-67
2022/10/29 01:53:59;;;;;;;1999.90;999.90;;;12.60;99.90;;;;;;5092762;28;20959;-67
2022/10/29 01:56:25;;;;;;;1999.90;999.90;;;12.60;99.90;;;;;;5092529;28;20449;-67
2022/10/29 01:58:56;;;;;;;1999.90;999.90;;;12.60;99.90;;;;;;5092799;28;20477;-67
2022/10/29 02:01:38;;;;;;;1999.90;999.90;;;12.50;99.90;;;;;;5092453;28;20441;-67
2022/10/29 02:04:20;;;;;;;1999.90;999.90;;;12.40;99.90;;;;;;5092966;28;20438;-67
2022/10/29 02:06:54;;;;;;;1999.90;999.90;;;12.50;99.90;;;;;;5092627;28;20442;-67
2022/10/29 02:09:27;;;;;;;1999.90;999.90;;;12.50;99.90;;;;;;5092453;28;20458;-67
2022/10/29 02:11:59;;;;;;;1999.90;999.90;;;12.50;99.90;;;;;;5091602;28;20438;-67
2022/10/29 02:14:32;;;;;;;1999.90;999.90;;;12.40;99.90;;;;;;5092299;28;20447;-67
2022/10/29 02:16:59;;;;;;;1999.90;999.90;;;12.40;99.90;;;;;;5092418;28;20453;-67
2022/10/29 02:19:30;;;;;;;1999.90;999.90;;;12.40;99.90;;;;;;5092251;28;20469;-67
2022/10/29 02:21:57;;;;;;;1999.90;999.90;;;12.40;99.90;;;;;;5091189;28;20445;-67
2022/10/29 02:24:24;;;;;;;1999.90;999.90;;;12.40;99.90;;;;;;5091957;28;20446;-67
2022/10/29 02:26:51;;;;;;;1999.90;999.90;;;12.40;99.90;;;;;;5092013;28;20450;-67
2022/10/29 02:29:18;;;;;;;1999.90;999.90;;;12.50;99.90;;;;;;5092013;28;20466;-67
2022/10/29 02:31:44;;;;;;;1999.90;999.90;;;12.60;99.90;;;;;;5091308;28;20450;-67
2022/10/29 02:34:11;;;;;;;1999.90;999.90;;;12.60;99.90;;;;;;5091648;28;20832;-67
2022/10/29 02:36:39;;;;;;;1999.90;999.90;;;12.60;99.90;;;;;;5091731;28;20952;-67
2022/10/29 02:39:06;;;;;;;1999.90;999.90;;;12.60;99.90;;;;;;5091910;28;20462;-67
2022/10/29 02:41:33;;;;;;;1999.90;999.90;;;12.60;99.90;;;;;;5091270;28;20446;-67
2022/10/29 02:44:00;;;;;;;1999.90;999.90;;;12.60;99.90;;;;;;5091449;28;20485;-67
2022/10/29 02:46:26;;;;;;;1999.90;999.90;;;12.70;99.90;;;;;;5091580;28;20820;-67
2022/10/29 02:48:53;;;;;;;1999.90;999.90;;;12.60;99.90;;;;;;5091262;28;20473;-67
2022/10/29 02:51:20;;;;;;;1999.90;999.90;;;12.70;99.90;;;;;;5091620;28;20470;-67
2022/10/29 02:53:48;;;;;;;1999.90;999.90;;;12.70;99.90;;;;;;5091161;28;20445;-67
2022/10/29 02:56:15;;;;;;;1999.90;999.90;;;12.70;99.90;;;;;;5091302;28;20811;-67
2022/10/29 02:58:41;;;;;;;1999.90;999.90;;;12.80;99.90;;;;;;5091813;28;20458;-67
2022/10/29 03:01:08;;;;;;;1999.90;999.90;;;12.70;99.90;;;;;;5090998;28;20442;-67
2022/10/29 03:03:35;;;;;;;1999.90;999.90;;;12.70;99.90;;;;;;5091152;28;20482;-67
2022/10/29 03:06:02;;;;;;;1999.90;999.90;;;12.70;99.90;;;;;;5091009;28;20443;-67
2022/10/29 03:08:28;;;;;;;1999.90;999.90;;;12.70;99.90;;;;;;5091218;28;20892;-67
2022/10/29 03:10:57;;;;;;;1999.90;999.90;;;12.70;99.90;;;;;;5090610;28;20446;-67
2022/10/29 03:13:23;;;;;;;1999.90;999.90;;;12.70;99.90;;;;;;5090835;28;20434;-67
2022/10/29 03:15:50;;;;;;;1999.90;999.90;;;12.60;99.90;;;;;;5090666;28;20453;-67
2022/10/29 03:18:17;;;;;;;1999.90;999.90;;;12.70;99.90;;;;;;5091460;28;20984;-67
2022/10/29 03:20:46;;;;;;;1999.90;999.90;;;12.70;99.90;;;;;;5090577;28;20449;-67
2022/10/29 03:23:13;;;;;;;1999.90;999.90;;;12.80;99.90;;;;;;5090539;28;20506;-67
2022/10/29 03:25:39;;;;;;;1999.90;999.90;;;12.80;99.90;;;;;;5090560;28;20925;-67
2022/10/29 03:28:07;;;;;;;1999.90;999.90;;;12.80;99.90;;;;;;5090969;28;20462;-67
2022/10/29 03:30:34;;;;;;;1999.90;999.90;;;12.70;99.90;;;;;;5090451;28;20450;-66
2022/10/29 03:33:01;;;;;;;1999.90;999.90;;;12.70;99.90;;;;;;5090510;28;20442;-67
2022/10/29 03:35:28;;;;;;;1999.90;999.90;;;12.70;99.90;;;;;;5089839;28;20477;-67
2022/10/29 03:37:54;;;;;;;1999.90;999.90;;;12.70;99.90;;;;;;5090583;28;20470;-67
2022/10/29 03:40:21;;;;;;;1999.90;999.90;;;12.70;99.90;;;;;;5090622;28;20442;-67
2022/10/29 03:42:48;;;;;;;1999.90;999.90;;;12.80;99.90;;;;;;5089158;28;20478;-67
2022/10/29 03:45:16;;;;;;;1999.90;999.90;;;12.70;99.90;;;;;;5090268;28;20446;-67
2022/10/29 03:47:43;;;;;;;1999.90;999.90;;;12.70;99.90;;;;;;5090595;28;20466;-67
2022/10/29 03:50:10;;;;;;;1999.90;999.90;;;12.70;99.90;;;;;;5090715;28;20476;-66
2022/10/29 03:52:37;;;;;;;1999.90;999.90;;;12.70;99.90;;;;;;5089518;28;20817;-67
2022/10/29 03:55:05;;;;;;;1999.90;999.90;;;12.80;99.90;;;;;;5090270;28;20483;-67
2022/10/29 03:57:32;;;;;;;1999.90;999.90;;;12.80;99.90;;;;;;5090307;28;20804;-67
2022/10/29 03:59:59;;;;;;;1999.90;999.90;;;12.70;99.90;;;;;;5090743;28;20450;-67
2022/10/29 04:02:27;;;;;;;1999.90;999.90;;;12.60;99.90;;;;;;5089223;28;20503;-67
2022/10/29 04:04:54;;;;;;;1999.90;999.90;;;12.70;99.90;;;;;;5090459;28;20450;-67
2022/10/29 04:07:21;;;;;;;1999.90;999.90;;;12.70;99.90;;;;;;5090464;28;20963;-67
2022/10/29 04:09:47;;;;;;;1999.90;999.90;;;12.70;99.90;;;;;;5090445;28;20470;-67
2022/10/29 04:12:14;;;;;;;1999.90;999.90;;;12.80;99.90;;;;;;5089710;28;20453;-67
2022/10/29 04:14:41;;;;;;;1999.90;999.90;;;12.80;99.90;;;;;;5089769;28;20456;-67
2022/10/29 04:17:08;;;;;;;1999.90;999.90;;;12.80;99.90;;;;;;5090555;28;20438;-67
2022/10/29 04:19:36;;;;;;;1999.90;999.90;;;12.80;99.90;;;;;;5090181;28;20833;-67
2022/10/29 04:22:03;;;;;;;1999.90;999.90;;;12.90;99.90;;;;;;5089341;28;20457;-67
2022/10/29 04:24:30;;;;;;;1999.90;999.90;;;12.80;99.90;;;;;;5089468;28;20489;-67
2022/10/29 04:26:56;;;;;;;1999.90;999.90;;;12.80;99.90;;;;;;5090070;28;20829;-67
2022/10/29 04:29:23;;;;;;;1999.90;999.90;;;12.80;99.90;;;;;;5090047;28;20473;-67
2022/10/29 04:31:50;;;;;;;1999.90;999.90;;;12.80;99.90;;;;;;5089183;28;20446;-67
2022/10/29 04:34:17;;;;;;;1999.90;999.90;;;12.80;99.90;;;;;;5089486;28;20461;-67
2022/10/29 04:36:45;;;;;;;1999.90;999.90;;;12.80;99.90;;;;;;5089990;28;20450;-67
2022/10/29 04:39:12;;;;;;;1999.90;999.90;;;12.80;99.90;;;;;;5089712;28;20466;-67
2022/10/29 04:41:39;;;;;;;1999.90;999.90;;;12.70;99.90;;;;;;5089367;28;20442;-67
2022/10/29 04:44:05;;;;;;;1999.90;999.90;;;12.70;99.90;;;;;;5089814;28;20489;-67
2022/10/29 04:46:32;;;;;;;1999.90;999.90;;;12.60;99.90;;;;;;5089451;28;20962;-67
2022/10/29 04:48:59;;;;;;;1999.90;999.90;;;12.60;99.90;;;;;;5089768;28;20468;-67
2022/10/29 04:51:27;;;;;;;1999.90;999.90;;;12.50;99.90;;;;;;5089215;28;20446;-67
2022/10/29 04:53:55;;;;;;;1999.90;999.90;;;12.40;99.90;;;;;;5089115;28;20443;-67
2022/10/29 04:56:21;;;;;;;1999.90;999.90;;;12.40;99.90;;;;;;5089395;28;20453;-67
2022/10/29 04:58:51;;;;;;;1999.90;999.90;;;12.40;99.90;;;;;;5089809;28;20466;-67
2022/10/29 05:01:17;;;;;;;1999.90;999.90;;;12.40;99.90;;;;;;5089086;28;20504;-67
2022/10/29 05:03:44;;;;;;;1999.90;999.90;;;12.30;99.90;;;;;;5089152;28;20482;-67
2022/10/29 05:06:11;;;;;;;1999.90;999.90;;;12.20;99.90;;;;;;5089081;28;20446;-67
2022/10/29 05:08:38;;;;;;;1999.90;999.90;;;12.10;99.90;;;;;;5089357;28;21002;-67
2022/10/29 05:11:06;;;;;;;1999.90;999.90;;;12.10;99.90;;;;;;5089085;28;20446;-67
2022/10/29 05:13:33;;;;;;;1999.90;999.90;;;12.00;99.90;;;;;;5092354;28;20446;-67
2022/10/29 05:16:00;;;;;;;1999.90;999.90;;;12.00;99.90;;;;;;5093318;28;20818;-67
2022/10/29 05:18:27;;;;;;;1999.90;999.90;;;11.90;99.90;;;;;;5093424;28;20462;-67
2022/10/29 05:20:54;;;;;;;1999.90;999.90;;;11.80;99.90;;;;;;5093073;28;20441;-68
2022/10/29 05:23:21;;;;;;;1999.90;999.90;;;11.80;99.90;;;;;;5092684;28;21029;-67
2022/10/29 05:25:50;;;;;;;1999.90;999.90;;;11.80;99.90;;;;;;5093141;28;20511;-67
2022/10/29 05:28:20;;;;;;;1999.90;999.90;;;11.80;99.90;;;;;;5093288;28;20533;-67
2022/10/29 05:30:48;;;;;;;1999.90;999.90;;;11.70;99.90;;;;;;5092882;28;20446;-67
2022/10/29 05:33:17;;;;;;;1999.90;999.90;;;11.70;99.90;;;;;;5092710;28;20822;-67
2022/10/29 05:35:44;;;;;;;1999.90;999.90;;;11.70;99.90;;;;;;5092607;28;20449;-67
2022/10/29 05:38:12;;;;;;;1999.90;999.90;;;11.70;99.90;;;;;;5093111;28;20472;-67
2022/10/29 05:40:41;;;;;;;1999.90;999.90;;;11.60;99.90;;;;;;5092844;28;20453;-67
2022/10/29 05:43:08;;;;;;;1999.90;999.90;;;11.60;99.90;;;;;;5092766;28;20868;-67
2022/10/29 05:45:36;;;;;;;1999.90;999.90;;;11.50;99.90;;;;;;5092627;28;20446;-67
2022/10/29 05:48:04;;;;;;;1999.90;999.90;;;11.50;99.90;;;;;;5092831;28;20465;-67
2022/10/29 05:50:32;;;;;;;1999.90;999.90;;;11.50;99.90;;;;;;5092946;28;20442;-67
2022/10/29 05:52:59;;;;;;;1999.90;999.90;;;11.40;99.90;;;;;;5092277;28;20438;-67
2022/10/29 05:55:27;;;;;;;1999.90;999.90;;;11.40;99.90;;;;;;5092567;28;20822;-67
2022/10/29 05:57:56;;;;;;;1999.90;999.90;;;11.30;99.90;;;;;;5092778;28;20465;-67
2022/10/29 06:00:22;;;;;;;1999.90;999.90;;;11.30;99.90;;;;;;5092593;28;20475;-66
2022/10/29 06:02:51;;;;;;;1999.90;999.90;;;11.30;99.90;;;;;;5091843;28;20955;-67
2022/10/29 06:05:17;;;;;;;1999.90;999.90;;;11.40;99.90;;;;;;5092319;28;20531;-67
2022/10/29 06:07:44;;;;;;;1999.90;999.90;;;11.40;99.90;;;;;;5092636;28;20462;-67
2022/10/29 06:10:11;;;;;;;1999.90;999.90;;;11.30;99.90;;;;;;5092748;28;20442;-67
2022/10/29 06:12:38;;;;;;;1999.90;999.90;;;11.30;99.90;;;;;;5091638;28;20465;-67
2022/10/29 06:15:06;;;;;;;1999.90;999.90;;;11.30;99.90;;;;;;5091975;28;20442;-66
2022/10/29 06:17:32;;;;;;;1999.90;999.90;;;11.20;99.90;;;;;;5092603;28;20446;-67
2022/10/29 06:20:00;;;;;;;1999.90;999.90;;;11.20;99.90;;;;;;5092460;28;20442;-67
2022/10/29 06:22:27;;;;;;;1999.90;999.90;;;11.30;99.90;;;;;;5091724;28;20445;-66
2022/10/29 06:24:54;;;;;;;1999.90;999.90;;;11.20;99.90;;;;;;5091948;28;20507;-67
2022/10/29 06:27:20;;;;;;;1999.90;999.90;;;11.30;99.90;;;;;;5092387;28;20446;-67
2022/10/29 06:29:47;;;;;;;1999.90;999.90;;;11.30;99.90;;;;;;5092372;28;20465;-66
2022/10/29 06:32:14;;;;;;;1999.90;999.90;;;11.30;99.90;;;;;;5091710;28;20442;-67
2022/10/29 06:34:41;;;;;;;1999.90;999.90;;;11.40;99.90;;;;;;5091736;28;20457;-67
2022/10/29 06:37:09;;;;;;;1999.90;999.90;;;11.40;99.90;;;;;;5092326;28;20442;-67
2022/10/29 06:39:35;;;;;;;1999.90;999.90;;;11.40;99.90;;;;;;5091918;28;20549;-66
2022/10/29 06:42:02;;;;;;;1999.90;999.90;;;11.50;99.90;;;;;;5091169;28;20438;-67
2022/10/29 06:44:29;;;;;;;1999.90;999.90;;;11.50;99.90;;;;;;5090909;28;20478;-67
2022/10/29 06:46:56;;;;;;;1999.90;999.90;;;11.50;99.90;;;;;;5088915;28;20439;-68
2022/10/29 06:49:23;;;;;;;1999.90;999.90;;;11.50;99.90;;;;;;5089480;28;20454;-68
2022/10/29 06:51:49;;;;;;;1999.90;999.90;;;11.60;99.90;;;;;;5090857;28;20453;-71
2022/10/29 06:54:18;;;;;;;1999.90;999.90;;;11.60;99.90;;;;;;5091310;28;20442;-71
2022/10/29 06:56:44;;;;;;;1999.90;999.90;;;11.60;99.90;;;;;;5091825;28;20466;-69
2022/10/29 06:59:11;;;;;;;1999.90;999.90;;;11.60;99.90;;;;;;5092159;28;20496;-71
2022/10/29 07:01:38;;;;;;;1999.90;999.90;;;11.60;99.90;;;;;;5090943;28;20446;-66
2022/10/29 07:04:05;;;;;;;1999.90;999.90;;;11.70;99.90;;;;;;5091063;28;20489;-66
2022/10/29 07:06:33;;;;;;;1999.90;999.90;;;11.70;99.90;;;;;;5090954;28;20442;-66
2022/10/29 07:08:59;;;;;;;1999.90;999.90;;;11.80;99.90;;;;;;5091369;28;20474;-66
2022/10/29 07:11:28;;;;;;;1999.90;999.90;;;11.90;99.90;;;;;;5090612;28;20457;-67
2022/10/29 07:13:54;;;;;;;1999.90;999.90;;;11.80;99.90;;;;;;5091220;28;20449;-69
2022/10/29 07:16:21;;;;;;;1999.90;999.90;;;11.90;99.90;;;;;;5092091;28;20450;-68
2022/10/29 07:18:48;;;;;;;1999.90;999.90;;;12.00;99.90;;;;;;5091426;28;20557;-69
2022/10/29 07:21:15;;;;;;;1999.90;999.90;;;12.10;99.90;;;;;;5083346;28;20469;-64
2022/10/29 07:23:41;;;;;;;1999.90;999.90;;;12.20;99.90;;;;;;5075582;28;20485;-65
2022/10/29 07:26:08;;;;;;;1999.90;999.90;;;12.20;99.90;;;;;;5072589;28;20499;-66
2022/10/29 07:28:36;;;;;;;1999.90;999.90;;;12.30;99.90;;;;;;5089423;28;20465;-68
2022/10/29 07:31:03;;;;;;;1999.90;999.90;;;12.40;99.90;;;;;;5086634;28;20533;-66
2022/10/29 07:33:30;;;;;;;1999.90;999.90;;;12.50;99.90;;;;;;5086501;28;20847;-67
2022/10/29 07:35:58;;;;;;;1999.90;999.90;;;12.60;99.90;;;;;;5086737;28;20835;-66
2022/10/29 07:38:26;;;;;;;1999.90;999.90;;;12.70;99.90;;;;;;5090550;28;20469;-66
2022/10/29 07:40:53;;;;;;;1999.90;999.90;;;12.80;99.90;;;;;;5090565;28;20445;-65
2022/10/29 07:43:20;;;;;;;1999.90;999.90;;;12.90;99.90;;;;;;5090226;28;20862;-66
2022/10/29 07:45:50;;;;;;;1999.90;999.90;;;12.90;99.90;;;;;;5090398;28;20478;-66
2022/10/29 07:48:18;;;;;;;1999.90;999.90;;;13.00;99.90;;;;;;5090756;28;20462;-66
2022/10/29 07:50:44;;;;;;;1999.90;999.90;;;13.10;99.90;;;;;;5090063;28;20943;-66
2022/10/29 07:53:11;;;;;;;1999.90;999.90;;;13.30;99.90;;;;;;5089523;28;20442;-66
2022/10/29 07:55:38;;;;;;;1999.90;999.90;;;13.40;99.90;;;;;;5088614;28;20442;-66
2022/10/29 07:58:07;;;;;;;1999.90;999.90;;;13.60;99.90;;;;;;5089646;28;20472;-66
2022/10/29 08:00:35;;;;;;;1999.90;999.90;;;13.80;99.90;;;;;;5090290;28;20838;-67
2022/10/29 08:03:04;;;;;;;1999.90;999.90;;;14.00;99.90;;;;;;5089838;28;20465;-66
2022/10/29 08:05:31;;;;;;;1999.90;999.90;;;14.10;99.90;;;;;;5089683;28;20477;-66
2022/10/29 08:07:58;;;;;;;1999.90;999.90;;;14.20;99.90;;;;;;5090121;28;20466;-66
2022/10/29 08:10:26;;;;;;;1999.90;999.90;;;14.30;99.90;;;;;;5089441;28;20503;-67
2022/10/29 08:12:54;;;;;;;1999.90;999.90;;;14.40;99.90;;;;;;5089424;28;20442;-66
2022/10/29 08:15:21;;;;;;;1999.90;999.90;;;14.50;99.90;;;;;;5089836;28;20447;-67
2022/10/29 08:17:48;;;;;;;1999.90;999.90;;;14.50;99.90;;;;;;5090247;28;20503;-66
2022/10/29 08:20:17;;;;;;;1999.90;999.90;;;14.60;99.90;;;;;;5089952;28;20455;-66
2022/10/29 08:22:44;;;;;;;1999.90;999.90;;;14.70;99.90;;;;;;5089419;28;20442;-66
2022/10/29 08:25:12;;;;;;;1999.90;999.90;;;14.80;99.90;;;;;;5089734;28;20474;-66
2022/10/29 08:27:39;;;;;;;1999.90;999.90;;;15.00;99.90;;;;;;5089776;28;20442;-66
2022/10/29 08:30:07;;;;;;;1999.90;999.90;;;15.20;99.90;;;;;;5089984;28;20465;-66
2022/10/29 08:32:34;;;;;;;1999.90;999.90;;;15.40;99.90;;;;;;5089030;28;20824;-66
2022/10/29 08:35:01;;;;;;;1999.90;999.90;;;15.70;99.90;;;;;;5089395;28;20533;-66
2022/10/29 08:37:29;;;;;;;1999.90;999.90;;;16.00;99.90;;;;;;5089870;28;20453;-67
2022/10/29 08:39:56;;;;;;;1999.90;999.90;;;16.30;99.90;;;;;;5089992;28;20450;-67
2022/10/29 08:42:39;;;;;;;1999.90;999.90;;;16.40;99.90;;;;;;5089095;28;20947;-66
2022/10/29 08:45:25;;;;;;;1999.90;999.90;;;16.70;99.90;;;;;;5089255;28;20481;-67
2022/10/29 08:48:20;;;;;;;1999.90;999.90;;;16.90;99.90;;;;;;5089829;28;20842;-67
2022/10/29 08:50:51;;;;;;;1999.90;999.90;;;17.10;99.90;;;;;;5089630;28;20461;-66
2022/10/29 08:53:23;;;;;;;1999.90;999.90;;;17.30;99.90;;;;;;5089543;28;20445;-67
2022/10/29 08:55:50;;;;;;;1999.90;999.90;;;17.40;99.90;;;;;;5089652;28;20434;-67
2022/10/29 08:58:24;;;;;;;1999.90;999.90;;;17.60;99.90;;;;;;5089981;28;20466;-66
2022/10/29 09:00:55;;;;;;;1999.90;999.90;;;17.70;99.90;;;;;;5089670;28;20446;-67
2022/10/29 09:03:24;;;;;;;1999.90;999.90;;;17.80;99.90;;;;;;5089311;28;20454;-66
2022/10/29 09:06:05;;;;;;;1999.90;999.90;;;17.90;99.90;;;;;;5089296;28;20532;-67
2022/10/29 09:08:43;;;;;;;1999.90;999.90;;;17.70;99.90;;;;;;5089649;28;20462;-69
2022/10/29 09:11:21;;;;;;;1999.90;999.90;;;17.40;99.90;;;;;;5091008;28;20445;-71
2022/10/29 09:14:01;;;;;;;1999.90;999.90;;;17.50;99.90;;;;;;5091103;28;20947;-66
2022/10/29 09:16:41;;;;;;;1999.90;999.90;;;17.60;99.90;;;;;;5088951;28;20446;-67
2022/10/29 09:19:28;;;;;;;1999.90;999.90;;;17.70;99.90;;;;;;5089334;28;21002;-67
2022/10/29 09:22:05;;;;;;;1999.90;999.90;;;18.00;99.90;;;;;;5077987;28;20465;-68
2022/10/29 09:24:43;;;;;;;1999.90;999.90;;;18.20;99.90;;;;;;5088866;28;20489;-67
2022/10/29 09:27:15;;;;;;;1999.90;999.90;;;18.40;99.90;;;;;;5089793;28;20843;-67
2022/10/29 09:29:54;;;;;;;1999.90;999.90;;;18.70;99.90;;;;;;5089211;28;20465;-67
2022/10/29 09:32:24;;;;;;;1999.90;999.90;;;18.80;99.90;;;;;;5088488;28;20991;-67
2022/10/29 09:34:56;;;;;;;1999.90;999.90;;;18.90;99.90;;;;;;5088720;28;20952;-67
2022/10/29 09:37:30;;;;;;;1999.90;999.90;;;19.20;99.90;;;;;;5089051;28;20817;-67
2022/10/29 09:39:59;;;;;;;1999.90;999.90;;;19.50;99.90;;;;;;5089242;28;20935;-67
2022/10/29 09:42:34;;;;;;;1999.90;999.90;;;19.90;99.90;;;;;;5088589;28;20446;-67
2022/10/29 09:45:04;;;;;;;1999.90;999.90;;;20.40;99.90;;;;;;5088823;28;20505;-67
2022/10/29 09:47:41;;;;;;;1999.90;999.90;;;21.00;99.90;;;;;;5089122;28;20450;-67
2022/10/29 09:50:19;;;;;;;1999.90;999.90;;;21.40;99.90;;;;;;5089386;28;20457;-67
2022/10/29 09:52:48;;;;;;;1999.90;999.90;;;22.00;99.90;;;;;;5088402;28;20833;-67
2022/10/29 09:55:24;;;;;;;1999.90;999.90;;;22.60;99.90;;;;;;5088552;28;20824;-67
2022/10/29 09:57:51;;;;;;;1999.90;999.90;;;23.30;99.90;;;;;;5088987;28;20995;-67
2022/10/29 10:00:21;;;;;;;1999.90;999.90;;;23.80;99.90;;;;;;5091721;28;20442;-67
2022/10/29 10:02:54;;;;;;;1999.90;999.90;;;24.30;99.90;;;;;;5091922;28;20438;-67
2022/10/29 10:05:26;;;;;;;1999.90;999.90;;;24.60;99.90;;;;;;5092079;28;20530;-67
2022/10/29 10:08:08;;;;;;;1999.90;999.90;;;24.80;99.90;;;;;;5092504;28;20458;-67
2022/10/29 10:10:49;;;;;;;1999.90;999.90;;;25.10;99.90;;;;;;5091734;28;20893;-67
2022/10/29 10:13:16;;;;;;;1999.90;999.90;;;25.50;99.90;;;;;;5092125;28;21103;-67
2022/10/29 10:15:50;;;;;;;1999.90;999.90;;;25.50;99.90;;;;;;5091922;28;20819;-67
2022/10/29 10:18:19;;;;;;;1999.90;999.90;;;25.70;99.90;;;;;;5092312;28;20462;-67
2022/10/29 10:20:49;;;;;;;1999.90;999.90;;;25.90;99.90;;;;;;5091903;28;20442;-67
2022/10/29 10:23:23;;;;;;;1999.90;999.90;;;26.40;99.90;;;;;;5085725;28;20469;-67
2022/10/29 10:25:52;;;;;;;1999.90;999.90;;;26.90;99.90;;;;;;5087415;28;20528;-67
2022/10/29 10:28:21;;;;;;;1999.90;999.90;;;27.30;99.90;;;;;;5088031;28;20471;-67
2022/10/29 10:31:07;;;;;;;1999.90;999.90;;;27.60;99.50;;;;;;5086369;28;20435;-67
2022/10/29 10:33:35;;;;;;;1999.90;999.90;;;27.80;97.10;;;;;;5087331;28;20562;-67
2022/10/29 10:36:05;;;;;;;1999.90;999.90;;;28.00;97.50;;;;;;5087367;28;20530;-67
2022/10/29 10:38:39;;;;;;;1999.90;999.90;;;28.30;96.30;;;;;;5087963;28;20466;-67
2022/10/29 10:41:09;;;;;;;1999.90;999.90;;;28.60;97.00;;;;;;5087833;28;20438;-67
2022/10/29 10:43:35;;;;;;;1999.90;999.90;;;28.80;94.90;;;;;;5087507;28;20434;-67
2022/10/29 10:46:10;;;;;;;1999.90;999.90;;;28.90;95.00;;;;;;5087289;28;20485;-67
2022/10/29 10:48:37;;;;;;;1999.90;999.90;;;29.20;94.60;;;;;;5087675;28;20557;-67
2022/10/29 10:51:18;;;;;;;1999.90;999.90;;;29.10;94.90;;;;;;5087273;28;20645;-67
2022/10/29 10:53:45;;;;;;;1999.90;999.90;;;29.10;95.00;;;;;;5087092;28;20446;-67
2022/10/29 10:56:21;;;;;;;1999.90;999.90;;;29.30;95.10;;;;;;5087501;28;20445;-67
2022/10/29 10:59:01;;;;;;;1999.90;999.90;;;29.70;94.10;;;;;;5087326;28;20466;-67
2022/10/29 11:01:33;;;;;;;1999.90;999.90;;;29.90;93.50;;;;;;5087497;28;20443;-68
2022/10/29 11:04:08;;;;;;;1999.90;999.90;;;30.20;93.70;;;;;;5087585;28;20457;-68
2022/10/29 11:06:39;;;;;;;1999.90;999.90;;;30.20;93.50;;;;;;5087362;28;20494;-68
2022/10/29 11:09:15;;;;;;;1999.90;999.90;;;30.30;93.40;;;;;;5087226;28;20458;-68
2022/10/29 11:11:47;;;;;;;1999.90;999.90;;;30.10;93.10;;;;;;5086706;28;20437;-68
2022/10/29 11:14:22;;;;;;;1999.90;999.90;;;29.70;93.50;;;;;;5086450;28;20920;-68
2022/10/29 11:16:52;;;;;;;1999.90;999.90;;;29.30;93.60;;;;;;5087461;28;20803;-68
2022/10/29 11:19:26;;;;;;;1999.90;999.90;;;29.30;93.70;;;;;;5087226;28;20505;-67
2022/10/29 11:22:08;;;;;;;1999.90;999.90;;;29.50;93.60;;;;;;5086207;28;20831;-67
2022/10/29 11:24:45;;;;;;;1999.90;999.90;;;29.90;93.20;;;;;;5086833;28;20453;-67
2022/10/29 11:27:25;;;;;;;1999.90;999.90;;;30.20;91.90;;;;;;5087246;28;20445;-67
2022/10/29 11:29:58;;;;;;;1999.90;999.90;;;30.30;92.00;;;;;;5085715;28;20477;-67
2022/10/29 11:32:34;;;;;;;1999.90;999.90;;;29.80;92.60;;;;;;5086565;28;20839;-68
2022/10/29 11:35:05;;;;;;;1999.90;999.90;;;29.10;93.10;;;;;;5086727;28;20469;-67
2022/10/29 11:37:38;;;;;;;1999.90;999.90;;;28.40;93.80;;;;;;5087227;28;20446;-67
2022/10/29 11:40:13;;;;;;;1999.90;999.90;;;27.70;95.00;;;;;;5086941;28;20507;-67
2022/10/29 11:42:45;;;;;;;1999.90;999.90;;;27.20;95.60;;;;;;5085930;28;20935;-67
2022/10/29 11:45:17;;;;;;;1999.90;999.90;;;26.60;96.60;;;;;;5087454;28;21065;-68
2022/10/29 11:48:09;;;;;;;1999.90;999.90;;;26.30;98.10;;;;;;5085845;28;20454;-65
2022/10/29 11:50:44;;;;;;;1999.90;999.90;;;25.90;98.10;;;;;;5084787;28;20537;-68
2022/10/29 11:53:23;;;;;;;1999.90;999.90;;;25.80;99.00;;;;;;5087614;28;21108;-68
2022/10/29 11:56:01;;;;;;;1999.90;999.90;;;25.60;99.20;;;;;;5087457;28;20578;-67
2022/10/29 11:58:34;;;;;;;1999.90;999.90;;;25.40;99.30;;;;;;5087515;28;20480;-68
2022/10/29 12:01:08;;;;;;;1999.90;999.90;;;25.30;99.90;;;;;;5087190;28;20442;-68
2022/10/29 12:03:50;;;;;;;1999.90;999.90;;;25.20;99.90;;;;;;5087054;28;20442;-68
2022/10/29 12:06:21;;;;;;;1999.90;999.90;;;25.20;99.60;;;;;;5087019;28;20482;-68
2022/10/29 12:09:02;;;;;;;1999.90;999.90;;;25.20;99.90;;;;;;5087335;28;20831;-67
2022/10/29 12:11:37;;;;;;;1999.90;999.90;;;25.30;99.90;;;;;;5086868;28;20451;-68
2022/10/29 12:14:18;;;;;;;1999.90;999.90;;;25.40;99.90;;;;;;5087130;28;20456;-67